Accueil
METAR-TAF:

METAR-TAF

Aéroports :

Aéroport de Dole-Jura

Dole, France

latitude: 47-02-34N, longitude: 005-26-06E, altitude: 196 m

Observation

Le bulletin a été fait il y a 39 minutes, à 19:00 UTC
Vent 6 kt de nord
Température 15°C
Humidité 82%
Pression 1029 hPa
Visibilité 10 km ou plus
Ciel couvert à une hauteur de 3600 ft

METAR: LFGJ 061900Z AUTO 35006KT 9999 OVC036 15/12 Q1029

Heure: 21:39 (19:39 UTC)

Prévision

Le bulletin a été fait il y a 5 heures et 39 minutes, à 14:00 UTC
Prévision valable du 06 à 15 UTC au 06 à 24 UTC
Vent 9 kt de nord
Visibilité 10 km ou plus
Nuages épars à une hauteur de 3000 ft
Nuages fragmentés à une hauteur de 25000 ft

TAF: LFGJ 061400Z 0615/0624 01009KT 9999 SCT030 BKN250

Observations et prévisions météorologiques de plus de 4000 aéroports (messages METAR et TAF).

Les stations disponibles sont représentées par des disques jaunes et rouges sur la carte.

Passer la souris dessus pour voir le nom de la station.

Cliquer dessus pour voir les observations et prévisions météorologiques.

Pour changer de carte: cliquez sur les boutons verts avec une croix noire pour zoomer, sur le bouton vert avec un tiret pour effectuer un zoom arrière, ou sur les flèches vertes pour les cartes adjacentes.


METAR-TAF: